Time;durP1;ratioP1;P1;durP2;ratioP2;P2;SDS_P1;SDS_P2;PMS_P1;PMS_P2;Temp;Humidity;BMP_temperature;BMP_pressure;BME280_temperature;BME280_humidity;BME280_pressure;Samples;Min_cycle;Max_cycle;Signal;HPM_P1;HPM_P2
2022/06/01 00:00:47;;;;;;;;;5.67;5.00;;;;;13.43;55.96;101079.38;5101055;27;45286;-70
2022/06/01 00:03:12;;;;;;;;;4.33;4.33;;;;;13.41;56.26;101082.25;5100855;27;45483;-71
2022/06/01 00:05:37;;;;;;;;;9.00;7.67;;;;;13.34;56.51;101076.00;5083490;27;46709;-71
2022/06/01 00:08:04;;;;;;;;;5.00;3.67;;;;;13.38;56.48;101090.66;5080354;28;45207;-71
2022/06/01 00:10:29;;;;;;;;;5.33;5.33;;;;;13.29;56.37;101076.53;5080624;27;45330;-71
2022/06/01 00:12:55;;;;;;;;;5.67;5.00;;;;;13.30;56.73;101088.06;5080161;28;45217;-70
2022/06/01 00:15:22;;;;;;;;;4.33;3.33;;;;;13.27;56.70;101089.25;5080347;27;45921;-70
2022/06/01 00:17:47;;;;;;;;;6.33;4.33;;;;;13.21;56.63;101084.66;5080270;27;45402;-71
2022/06/01 00:20:14;;;;;;;;;8.33;5.33;;;;;13.20;56.69;101091.81;5080340;28;45318;-70
2022/06/01 00:22:41;;;;;;;;;3.00;3.00;;;;;13.10;57.05;101080.59;5080331;27;45396;-70
2022/06/01 00:25:07;;;;;;;;;4.33;4.33;;;;;13.10;56.96;101091.25;5080153;28;45241;-71
2022/06/01 00:27:34;;;;;;;;;3.67;3.67;;;;;13.06;57.04;101090.81;5079868;27;45471;-70
2022/06/01 00:29:59;;;;;;;;;4.67;4.67;;;;;13.02;57.25;101104.69;5079350;28;45260;-70
2022/06/01 00:32:25;;;;;;;;;5.00;5.00;;;;;12.94;57.31;101097.59;5079742;27;45219;-70
2022/06/01 00:34:50;;;;;;;;;0.00;0.00;;;;;12.87;58.20;101092.97;5079863;27;45228;-70
2022/06/01 00:37:17;;;;;;;;;6.33;4.00;;;;;12.82;58.22;101098.03;5080129;27;45280;-70
2022/06/01 00:39:44;;;;;;;;;4.33;4.33;;;;;12.82;58.32;101090.03;5080215;27;45298;-70
2022/06/01 00:42:30;;;;;;;;;5.67;4.67;;;;;12.72;58.02;101092.13;5079512;27;45524;-71
2022/06/01 00:44:55;;;;;;;;;4.67;4.67;;;;;12.75;57.98;101108.56;5079640;27;46145;-70
2022/06/01 00:47:23;;;;;;;;;5.67;4.33;;;;;12.72;58.32;101108.13;5095198;27;45735;-70
2022/06/01 00:50:27;;;;;;;;;4.33;4.33;;;;;12.63;58.54;101104.66;5079817;27;45177;-70
2022/06/01 00:53:06;;;;;;;;;7.00;5.67;;;;;12.60;58.78;101097.88;5079710;27;45211;-71
2022/06/01 00:55:40;;;;;;;;;4.67;4.67;;;;;12.56;58.96;101101.91;5079528;27;46038;-70
2022/06/01 00:58:28;;;;;;;;;6.00;5.00;;;;;12.44;59.29;101077.50;5112401;27;45798;-70
2022/06/01 01:00:55;;;;;;;;;4.33;4.33;;;;;12.43;59.69;101089.19;5079890;27;45389;-70
2022/06/01 01:03:25;;;;;;;;;7.00;5.67;;;;;12.42;59.52;101106.16;5079411;27;45519;-71
2022/06/01 01:06:09;;;;;;;;;4.67;4.67;;;;;12.38;59.44;101102.19;5096831;27;45392;-70
2022/06/01 01:08:34;;;;;;;;;7.00;6.33;;;;;12.35;59.67;101103.38;5099917;27;45367;-70
2022/06/01 01:10:59;;;;;;;;;5.00;5.00;;;;;12.33;60.02;101104.59;5098708;27;45411;-70
2022/06/01 01:13:25;;;;;;;;;6.00;6.00;;;;;12.24;60.22;101093.13;5100158;27;45197;-71
2022/06/01 01:15:52;;;;;;;;;7.00;7.00;;;;;12.25;60.24;101098.28;5099829;27;45266;-71
2022/06/01 01:18:22;;;;;;;;;6.00;6.00;;;;;12.22;60.50;101106.63;5099807;27;45385;-70
2022/06/01 01:20:50;;;;;;;;;5.67;5.67;;;;;12.17;60.67;101103.66;5100056;27;45261;-70
2022/06/01 01:23:38;;;;;;;;;7.00;6.00;;;;;12.07;60.73;101084.41;5099790;27;45459;-71
2022/06/01 01:26:05;;;;;;;;;5.33;3.67;;;;;12.06;60.95;101091.53;5099531;27;45725;-70
2022/06/01 01:28:31;;;;;;;;;3.67;3.67;;;;;12.06;61.20;101106.72;5099697;27;45377;-70
2022/06/01 01:31:02;;;;;;;;;7.33;6.67;;;;;12.00;61.13;101102.88;5099700;27;45240;-71
2022/06/01 01:33:29;;;;;;;;;8.33;7.67;;;;;11.97;61.52;101105.91;5099678;27;46249;-70
2022/06/01 01:36:04;;;;;;;;;4.00;4.00;;;;;11.89;61.40;101088.16;5099346;27;46497;-70
2022/06/01 01:38:54;;;;;;;;;6.00;6.00;;;;;11.86;61.61;101097.28;5099665;27;45350;-70
2022/06/01 01:41:31;;;;;;;;;5.33;5.00;;;;;11.83;62.01;101099.50;5101221;27;45810;-70
2022/06/01 01:44:17;;;;;;;;;4.67;4.67;;;;;11.82;62.03;101103.97;5103069;27;45728;-71
2022/06/01 01:46:47;;;;;;;;;6.33;5.67;;;;;11.72;62.55;101085.56;5102804;27;45437;-70
2022/06/01 01:49:14;;;;;;;;;6.00;6.00;;;;;11.77;62.30;101097.53;5101668;27;45345;-70
2022/06/01 01:51:39;;;;;;;;;4.33;4.33;;;;;11.69;62.59;101091.22;5103251;27;45336;-70
2022/06/01 01:54:31;;;;;;;;;7.00;7.00;;;;;11.68;63.01;101096.72;5102807;27;45422;-70
2022/06/01 01:57:09;;;;;;;;;8.00;7.00;;;;;11.66;63.10;101098.72;5102880;27;45944;-71
2022/06/01 01:59:34;;;;;;;;;3.33;3.33;;;;;11.64;62.62;101101.56;5102959;27;45412;-70
2022/06/01 02:02:06;;;;;;;;;6.00;6.00;;;;;11.61;63.20;101099.22;5102869;27;45271;-70
2022/06/01 02:08:17;;;;;;;;;7.00;7.00;;;;;11.50;63.08;101084.50;5077071;27;45452;-70
2022/06/01 02:13:27;;;;;;;;;6.33;6.33;;;;;11.52;63.20;101079.00;5082230;28;45244;-70
2022/06/01 02:15:54;;;;;;;;;7.00;7.00;;;;;11.54;62.82;101076.97;5082179;27;45325;-70
2022/06/01 02:18:28;;;;;;;;;5.67;5.67;;;;;11.46;63.23;101070.69;5081944;28;46292;-70
2022/06/01 02:21:01;;;;;;;;;7.00;7.00;;;;;11.49;63.56;101078.31;5082378;27;45358;-70
2022/06/01 02:23:31;;;;;;;;;7.33;7.33;;;;;11.47;63.72;101082.16;5082301;27;45338;-70
2022/06/01 02:25:58;;;;;;;;;7.67;6.00;;;;;11.38;63.52;101069.88;5080625;28;46098;-70
2022/06/01 02:28:24;;;;;;;;;8.00;8.00;;;;;11.38;64.08;101070.72;5080432;28;46173;-70
2022/06/01 02:30:50;;;;;;;;;7.33;7.33;;;;;11.33;63.83;101067.72;5081928;28;45261;-70
2022/06/01 02:33:20;;;;;;;;;8.00;8.00;;;;;11.13;63.77;101052.16;5081788;28;45307;-70
2022/06/01 02:35:50;;;;;;;;;8.00;8.00;;;;;11.23;64.00;101059.97;5081965;27;45555;-70
2022/06/01 02:38:21;;;;;;;;;7.67;7.67;;;;;11.21;64.26;101076.09;5081813;28;45405;-70
2022/06/01 02:40:47;;;;;;;;;8.67;8.33;;;;;11.17;64.34;101065.97;5080005;28;45414;-70
2022/06/01 02:43:13;;;;;;;;;9.67;9.00;;;;;11.18;64.49;101070.25;5081986;28;45275;-71
2022/06/01 02:45:40;;;;;;;;;9.67;9.67;;;;;11.11;64.52;101067.47;5081686;28;45390;-70
2022/06/01 02:48:06;;;;;;;;;9.00;8.00;;;;;11.12;64.59;101058.47;5081511;28;45981;-71
2022/06/01 02:50:34;;;;;;;;;7.00;6.67;;;;;11.13;64.31;101069.97;5081618;27;45256;-70
2022/06/01 02:53:00;;;;;;;;;5.67;5.67;;;;;11.06;64.47;101061.81;5081047;27;45275;-70
2022/06/01 02:55:27;;;;;;;;;6.00;5.33;;;;;11.06;64.89;101054.69;5081520;28;45278;-71
2022/06/01 02:57:53;;;;;;;;;6.00;6.00;;;;;11.06;64.85;101064.47;5081280;27;45327;-70
2022/06/01 03:00:26;;;;;;;;;6.00;6.00;;;;;10.96;65.00;101046.88;5081589;27;45397;-71
2022/06/01 03:02:55;;;;;;;;;8.00;8.00;;;;;10.97;65.12;101053.88;5079848;28;45386;-71
2022/06/01 03:05:24;;;;;;;;;6.67;6.67;;;;;10.97;65.10;101056.53;5093368;27;47117;-70
2022/06/01 03:07:50;;;;;;;;;6.67;6.67;;;;;10.87;65.37;101047.91;5101594;27;45468;-70
2022/06/01 03:10:16;;;;;;;;;6.67;6.67;;;;;10.89;65.42;101053.88;5135032;27;45333;-70
2022/06/01 03:12:41;;;;;;;;;8.00;6.67;;;;;10.90;65.61;101055.53;5101774;27;45362;-70
2022/06/01 03:15:09;;;;;;;;;7.67;7.67;;;;;10.86;65.88;101056.84;5100378;27;46084;-70
2022/06/01 03:17:34;;;;;;;;;8.33;8.33;;;;;10.85;66.07;101058.72;5100198;27;48571;-70
2022/06/01 03:20:00;;;;;;;;;8.67;8.67;;;;;10.79;65.81;101046.06;5101512;27;45306;-71
2022/06/01 03:22:26;;;;;;;;;7.00;7.00;;;;;10.80;66.01;101062.84;5100373;27;45294;-71
2022/06/01 03:24:51;;;;;;;;;6.67;6.33;;;;;10.68;66.03;101054.38;5101507;27;45501;-70
2022/06/01 03:27:17;;;;;;;;;8.33;7.67;;;;;10.68;66.05;101060.53;5101379;27;46284;-71
2022/06/01 03:29:43;;;;;;;;;6.67;6.67;;;;;10.66;66.17;101067.88;5101533;27;45227;-70
2022/06/01 03:32:09;;;;;;;;;9.00;9.00;;;;;10.72;66.08;101075.16;5101525;27;45373;-70
2022/06/01 03:34:35;;;;;;;;;6.67;6.67;;;;;10.69;65.78;101075.47;5101092;27;45259;-70
2022/06/01 03:37:02;;;;;;;;;9.00;9.00;;;;;10.66;66.14;101073.19;5134265;27;47651;-70
2022/06/01 03:39:28;;;;;;;;;9.00;9.00;;;;;10.63;66.10;101078.81;5101234;27;45357;-70
2022/06/01 03:41:53;;;;;;;;;7.00;6.67;;;;;10.60;66.19;101073.84;5101249;27;45395;-70
2022/06/01 03:47:09;;;;;;;;;9.67;9.33;;;;;10.51;66.64;101075.66;5100943;27;45366;-70
2022/06/01 03:49:35;;;;;;;;;8.67;8.67;;;;;10.52;66.77;101081.78;5116843;27;45779;-70
2022/06/01 03:52:00;;;;;;;;;7.00;7.00;;;;;10.43;67.27;101081.78;5101403;27;45396;-70
2022/06/01 03:54:25;;;;;;;;;7.33;7.33;;;;;10.45;67.58;101082.44;5100776;27;45326;-71
2022/06/01 03:56:51;;;;;;;;;7.33;7.33;;;;;10.44;67.35;101080.78;5101049;27;45380;-70
2022/06/01 03:59:17;;;;;;;;;9.67;7.67;;;;;10.36;67.81;101073.63;5101121;27;45357;-70
2022/06/01 04:01:42;;;;;;;;;9.00;8.00;;;;;10.33;67.87;101073.13;5101091;27;45332;-70
2022/06/01 04:04:07;;;;;;;;;10.00;9.00;;;;;10.39;67.95;101083.09;5097722;27;45489;-70
2022/06/01 04:06:33;;;;;;;;;9.00;8.33;;;;;10.40;67.92;101084.75;5096179;27;48117;-70
2022/06/01 04:08:59;;;;;;;;;6.00;5.00;;;;;10.37;67.64;101074.47;5080412;27;45325;-70
2022/06/01 04:11:25;;;;;;;;;7.00;7.00;;;;;10.43;67.76;101091.56;5080614;27;45495;-70
2022/06/01 04:13:50;;;;;;;;;10.00;10.00;;;;;10.28;67.73;101080.75;5080467;27;45370;-70
2022/06/01 04:16:18;;;;;;;;;7.67;7.67;;;;;10.35;67.99;101092.38;5080016;28;45288;-70
2022/06/01 04:18:45;;;;;;;;;7.00;7.00;;;;;10.36;68.30;101097.53;5078989;28;46169;-71
2022/06/01 04:21:11;;;;;;;;;9.67;8.00;;;;;10.30;68.45;101090.22;5079070;28;45288;-71
2022/06/01 04:23:36;;;;;;;;;8.33;8.33;;;;;10.31;68.22;101099.03;5078638;28;46343;-71
2022/06/01 04:26:01;;;;;;;;;8.67;8.33;;;;;10.33;68.24;101094.38;5080170;28;45403;-71
2022/06/01 04:28:27;;;;;;;;;8.00;8.00;;;;;10.33;68.36;101102.34;5080159;28;45328;-70
2022/06/01 04:30:52;;;;;;;;;7.33;7.00;;;;;10.34;68.41;101096.88;5080385;27;45464;-70
2022/06/01 04:33:18;;;;;;;;;9.00;8.67;;;;;10.41;68.24;101106.81;5080165;27;45568;-70
2022/06/01 04:35:43;;;;;;;;;10.00;10.00;;;;;10.41;68.56;101106.81;5079902;27;46406;-70
2022/06/01 04:38:15;;;;;;;;;10.00;8.00;;;;;10.42;68.84;101109.31;5080004;27;45384;-70
2022/06/01 04:40:50;;;;;;;;;12.00;11.67;;;;;10.44;69.09;101109.16;5078341;28;45182;-70
2022/06/01 04:43:19;;;;;;;;;12.33;11.00;;;;;10.46;68.78;101120.50;5078399;28;46162;-70
2022/06/01 04:45:44;;;;;;;;;12.00;11.00;;;;;10.47;68.51;101122.16;5079729;27;45360;-70
2022/06/01 04:48:11;;;;;;;;;14.00;10.33;;;;;10.42;68.61;101111.16;5079743;27;45391;-70
2022/06/01 04:50:42;;;;;;;;;15.00;12.67;;;;;10.43;68.77;101126.94;5080000;27;45301;-70
2022/06/01 04:53:17;;;;;;;;;13.33;11.33;;;;;10.41;68.95;101130.75;5078341;28;47045;-70
2022/06/01 04:55:44;;;;;;;;;15.33;12.67;;;;;10.40;68.85;101129.94;5079192;28;48612;-70
2022/06/01 04:58:11;;;;;;;;;12.00;10.00;;;;;10.33;68.98;101110.31;5078294;28;45802;-71
2022/06/01 05:00:37;;;;;;;;;13.33;10.67;;;;;10.43;68.97;101128.75;5079785;28;45165;-70
2022/06/01 05:03:03;;;;;;;;;12.33;12.33;;;;;10.48;69.42;101134.47;5079627;28;45262;-70
2022/06/01 05:05:29;;;;;;;;;12.33;12.00;;;;;10.50;69.27;101140.44;5094038;27;45220;-70
2022/06/01 05:07:54;;;;;;;;;16.33;15.33;;;;;10.45;69.13;101129.44;5100049;27;45278;-71
2022/06/01 05:10:23;;;;;;;;;16.67;13.67;;;;;10.58;69.39;101144.94;5120159;27;45546;-70
2022/06/01 05:12:49;;;;;;;;;17.25;16.00;;;;;10.61;69.46;101152.56;5077330;28;45370;-71
2022/06/01 05:15:15;;;;;;;;;16.50;15.25;;;;;10.63;69.40;101147.94;5078698;27;45344;-72
2022/06/01 05:17:41;;;;;;;;;16.67;13.00;;;;;10.60;69.98;101142.94;5079202;27;45412;-71
2022/06/01 05:20:07;;;;;;;;;42.50;34.25;;;;;10.70;69.66;101150.75;5079484;27;45353;-72
2022/06/01 05:22:32;;;;;;;;;22.50;20.50;;;;;10.73;69.99;101155.75;5079353;27;45453;-71
2022/06/01 05:24:58;;;;;;;;;18.25;18.00;;;;;10.75;70.31;101151.09;5079296;27;45243;-72
2022/06/01 05:27:23;;;;;;;;;17.50;17.50;;;;;10.77;70.22;101151.75;5079280;28;45373;-71
2022/06/01 05:29:50;;;;;;;;;22.50;18.25;;;;;10.88;70.21;101153.25;5095215;27;45390;-72
2022/06/01 05:32:16;;;;;;;;;21.00;20.00;;;;;10.93;70.51;101153.56;5076689;27;46136;-71
2022/06/01 05:34:41;;;;;;;;;21.25;20.25;;;;;10.96;70.33;101147.94;5078868;28;45534;-72
2022/06/01 05:37:06;;;;;;;;;27.75;25.00;;;;;11.08;70.27;101147.59;5079392;27;45263;-71
2022/06/01 05:39:32;;;;;;;;;32.50;29.50;;;;;11.11;70.50;101129.47;5078114;27;45606;-72
2022/06/01 05:41:57;;;;;;;;;33.75;29.50;;;;;11.27;70.39;101140.25;5068893;28;47589;-72
2022/06/01 05:44:22;;;;;;;;;38.75;32.00;;;;;11.26;70.06;101136.78;5075957;27;45488;-72
2022/06/01 05:46:55;;;;;;;;;40.75;34.50;;;;;11.43;70.30;101139.41;5078266;27;45474;-72
2022/06/01 05:49:21;;;;;;;;;38.00;32.00;;;;;11.51;69.96;101139.38;5078419;28;45220;-72
2022/06/01 05:51:46;;;;;;;;;36.50;33.50;;;;;11.61;70.14;101139.16;5078263;28;45350;-72
2022/06/01 05:54:12;;;;;;;;;42.00;33.25;;;;;11.58;70.15;101120.88;5074439;28;47251;-72
2022/06/01 05:56:37;;;;;;;;;35.00;32.00;;;;;11.77;69.84;101134.81;5077851;27;45353;-71
2022/06/01 05:59:03;;;;;;;;;44.00;34.25;;;;;11.89;69.63;101132.59;5079188;27;45330;-72
2022/06/01 06:01:29;;;;;;;;;38.00;32.50;;;;;12.00;69.63;101135.69;5078765;27;45614;-72
2022/06/01 06:03:54;;;;;;;;;34.50;30.25;;;;;12.06;68.67;101123.50;5080029;27;45430;-72
2022/06/01 06:06:20;;;;;;;;;28.75;24.75;;;;;12.17;68.59;101118.81;5099099;27;45331;-71
2022/06/01 06:08:49;;;;;;;;;30.75;27.25;;;;;12.23;68.73;101134.09;5099295;27;45439;-71
2022/06/01 06:11:16;;;;;;;;;26.75;26.25;;;;;12.41;68.62;101139.16;5099080;27;45248;-71
2022/06/01 06:13:42;;;;;;;;;22.33;21.67;;;;;12.49;67.94;101143.63;5099237;27;45411;-71
2022/06/01 06:16:08;;;;;;;;;22.67;20.67;;;;;12.59;67.73;101144.22;5098722;27;45450;-72
2022/06/01 06:18:34;;;;;;;;;22.33;19.67;;;;;12.71;67.85;101147.28;5132287;27;45447;-71
2022/06/01 06:20:59;;;;;;;;;21.33;19.00;;;;;12.78;67.61;101141.25;5099176;27;45426;-72
2022/06/01 06:23:25;;;;;;;;;17.33;16.67;;;;;12.89;66.87;101143.47;5098938;27;45349;-71
2022/06/01 06:25:50;;;;;;;;;18.00;15.67;;;;;12.96;67.00;101148.94;5098927;27;45355;-71
2022/06/01 06:28:16;;;;;;;;;19.00;16.00;;;;;13.10;66.74;101144.63;5100982;27;45327;-71
2022/06/01 06:30:42;;;;;;;;;18.33;16.00;;;;;13.15;67.13;101136.91;5102367;27;45450;-71
2022/06/01 06:33:08;;;;;;;;;17.33;17.00;;;;;13.23;66.85;101134.16;5102350;27;46291;-72
2022/06/01 06:35:34;;;;;;;;;15.00;15.00;;;;;13.38;66.58;101146.72;5135628;27;45233;-71
2022/06/01 06:38:00;;;;;;;;;18.67;17.00;;;;;13.48;66.05;101157.09;5102638;27;45362;-72
2022/06/01 06:40:26;;;;;;;;;16.33;16.33;;;;;13.51;65.77;101138.09;5118052;27;45554;-72
2022/06/01 06:42:52;;;;;;;;;16.00;14.67;;;;;13.69;65.40;101145.72;5072908;27;45413;-72
2022/06/01 06:45:19;;;;;;;;;18.00;17.33;;;;;13.80;65.00;101152.41;5080202;28;45385;-72
2022/06/01 06:47:44;;;;;;;;;16.00;14.33;;;;;13.92;64.89;101152.78;5081727;27;45287;-72
2022/06/01 06:50:14;;;;;;;;;13.33;13.33;;;;;14.03;64.67;101156.81;5081695;27;45350;-72
2022/06/01 06:52:39;;;;;;;;;9.00;9.00;;;;;14.14;63.40;101158.19;5081633;27;45358;-72
2022/06/01 06:55:06;;;;;;;;;10.00;9.00;;;;;14.19;63.21;101155.75;5097075;27;45673;-72
2022/06/01 06:57:32;;;;;;;;;10.00;10.00;;;;;14.26;63.10;101159.38;5097438;27;45368;-72
2022/06/01 06:59:57;;;;;;;;;8.00;8.00;;;;;14.33;62.41;101146.06;5081541;27;45397;-72
2022/06/01 07:02:23;;;;;;;;;7.67;7.67;;;;;14.51;62.42;101161.69;5081348;27;45994;-71
2022/06/01 07:04:48;;;;;;;;;8.00;7.00;;;;;14.59;62.09;101158.06;5090386;27;45347;-71
2022/06/01 07:07:14;;;;;;;;;8.00;7.00;;;;;14.66;61.72;101149.28;5085963;27;45300;-72
2022/06/01 07:09:41;;;;;;;;;6.00;6.00;;;;;14.75;61.68;101156.97;5095524;27;46607;-71
2022/06/01 07:12:07;;;;;;;;;6.67;6.67;;;;;14.82;61.71;101154.41;5081208;28;45375;-72
2022/06/01 07:14:33;;;;;;;;;5.67;4.67;;;;;14.88;61.45;101156.28;5079089;28;45637;-71
2022/06/01 07:17:00;;;;;;;;;3.00;2.67;;;;;15.07;60.46;101170.03;5097118;27;45625;-72
2022/06/01 07:19:26;;;;;;;;;4.00;4.00;;;;;15.18;60.03;101171.34;5081201;27;45359;-72
2022/06/01 07:21:51;;;;;;;;;4.00;3.00;;;;;15.23;59.70;101157.34;5081124;27;45430;-72
2022/06/01 07:24:17;;;;;;;;;4.00;4.00;;;;;15.36;59.06;101165.47;5081350;27;45342;-72
2022/06/01 07:26:44;;;;;;;;;5.00;4.33;;;;;15.47;59.12;101169.47;5079900;28;45467;-72
2022/06/01 07:29:10;;;;;;;;;4.00;4.00;;;;;15.49;58.76;101170.13;5078968;27;45363;-71
2022/06/01 07:31:36;;;;;;;;;3.67;3.67;;;;;15.59;58.88;101166.25;5094304;27;47222;-72
2022/06/01 07:34:02;;;;;;;;;4.00;4.00;;;;;15.68;57.96;101175.78;5077740;28;45391;-72
2022/06/01 07:36:29;;;;;;;;;4.00;4.00;;;;;15.67;58.08;101171.44;5112061;27;45568;-72
2022/06/01 07:44:21;;;;;;;;;3.67;3.67;;;;;15.92;56.90;101184.34;5080694;27;45369;-72
2022/06/01 07:46:48;;;;;;;;;4.33;4.00;;;;;15.97;56.49;101183.78;5080752;27;45870;-72
2022/06/01 07:49:14;;;;;;;;;4.00;4.00;;;;;16.05;56.52;101180.94;5096377;27;47469;-72
2022/06/01 07:51:40;;;;;;;;;2.67;2.67;;;;;16.06;55.73;101169.19;5080567;27;46159;-72
2022/06/01 07:54:06;;;;;;;;;3.00;3.00;;;;;16.20;56.05;101175.44;5080732;27;45275;-72
2022/06/01 07:56:32;;;;;;;;;6.00;4.00;;;;;16.30;55.53;101179.56;5080772;27;45468;-72
2022/06/01 07:58:57;;;;;;;;;3.00;3.00;;;;;16.32;55.45;101173.00;5080683;27;45343;-72
2022/06/01 08:01:26;;;;;;;;;3.33;3.33;;;;;16.44;55.43;101167.84;5080378;27;45763;-72
2022/06/01 08:03:56;;;;;;;;;4.00;3.67;;;;;16.52;54.97;101170.34;5096979;27;45366;-72
2022/06/01 08:06:26;;;;;;;;;3.67;3.67;;;;;16.55;54.09;101165.59;5116975;27;45393;-72
2022/06/01 08:08:52;;;;;;;;;4.00;4.00;;;;;16.55;54.09;101161.03;5100600;27;45602;-72
2022/06/01 08:11:18;;;;;;;;;3.00;3.00;;;;;16.63;54.38;101160.03;5099450;27;48126;-72
2022/06/01 08:13:44;;;;;;;;;4.00;4.00;;;;;16.74;54.36;101161.28;5099558;27;45883;-72
2022/06/01 08:16:09;;;;;;;;;4.33;4.33;;;;;16.78;53.83;101160.69;5100498;27;45546;-72
2022/06/01 08:18:35;;;;;;;;;3.00;3.00;;;;;16.90;54.40;101160.88;5100913;27;45563;-72
2022/06/01 08:21:01;;;;;;;;;2.67;2.67;;;;;16.96;53.86;101169.97;5100692;27;45399;-72
2022/06/01 08:23:29;;;;;;;;;3.33;3.33;;;;;17.00;53.42;101165.84;5099197;27;45394;-72
2022/06/01 08:25:55;;;;;;;;;7.33;7.00;;;;;17.01;53.99;101156.75;5100684;27;45335;-72
2022/06/01 08:28:22;;;;;;;;;3.67;3.33;;;;;17.13;52.96;101161.53;5100634;27;45290;-72
2022/06/01 08:30:48;;;;;;;;;4.00;3.00;;;;;17.21;53.30;101169.34;5100263;27;45336;-72
2022/06/01 08:33:14;;;;;;;;;4.67;4.67;;;;;17.24;53.21;101160.88;5100611;27;45295;-72
2022/06/01 08:35:43;;;;;;;;;4.67;4.00;;;;;17.37;53.19;101169.97;5100510;27;45357;-72
2022/06/01 08:38:08;;;;;;;;;5.00;5.00;;;;;17.44;53.37;101159.19;5100440;27;45412;-73
2022/06/01 08:40:43;;;;;;;;;4.00;4.00;;;;;17.50;52.51;101169.94;5090837;27;46938;-73
2022/06/01 08:43:13;;;;;;;;;6.67;6.67;;;;;17.51;52.39;101158.16;5074034;27;45439;-72
2022/06/01 08:45:44;;;;;;;;;3.00;3.00;;;;;17.62;52.07;101158.53;5075139;28;45241;-71
2022/06/01 08:48:18;;;;;;;;;4.67;3.33;;;;;17.58;50.22;101155.47;5057992;28;45959;-71
2022/06/01 08:50:44;;;;;;;;;5.00;5.00;;;;;17.67;50.36;101161.44;5062908;27;45398;-72
2022/06/01 08:53:09;;;;;;;;;6.00;6.00;;;;;17.63;50.28;101152.94;5075288;27;45327;-72
2022/06/01 08:55:47;;;;;;;;;5.00;4.67;;;;;17.78;50.72;101159.94;5079977;27;45346;-72
2022/06/01 08:58:27;;;;;;;;;5.33;5.00;;;;;17.86;49.58;101164.25;5073031;27;45222;-71
2022/06/01 09:01:05;;;;;;;;;4.00;4.00;;;;;17.93;50.27;101167.75;5076603;28;46676;-72
2022/06/01 09:03:42;;;;;;;;;7.00;4.33;;;;;18.00;50.27;101163.16;5079646;27;45415;-72
2022/06/01 09:06:19;;;;;;;;;6.00;4.67;;;;;18.05;50.18;101149.09;5099598;27;45280;-73
2022/06/01 09:09:14;;;;;;;;;4.00;4.00;;;;;18.13;48.85;101156.09;5099869;27;45347;-73
2022/06/01 09:11:44;;;;;;;;;4.00;4.00;;;;;18.16;48.19;101155.66;5087990;27;45511;-72
2022/06/01 09:14:19;;;;;;;;;5.33;4.00;;;;;18.30;48.90;101175.25;5097308;27;47261;-74
2022/06/01 09:16:50;;;;;;;;;5.33;4.00;;;;;18.35;48.82;101175.41;5068665;27;45341;-74
2022/06/01 09:19:27;;;;;;;;;7.00;5.00;;;;;18.37;48.51;101161.75;5072716;28;45331;-72
2022/06/01 09:24:48;;;;;;;;;5.00;5.00;;;;;18.48;48.45;101171.84;5075470;28;45314;-72
2022/06/01 09:27:15;;;;;;;;;5.67;5.33;;;;;18.46;47.69;101165.84;5076779;28;45417;-73
2022/06/01 09:29:47;;;;;;;;;4.67;4.67;;;;;18.55;47.77;101171.78;5093077;27;46036;-73
2022/06/01 09:32:34;;;;;;;;;5.67;5.00;;;;;18.63;47.56;101170.69;5074481;27;46472;-72
2022/06/01 09:35:07;;;;;;;;;7.00;6.00;;;;;18.67;47.80;101158.44;5073049;27;45492;-73
2022/06/01 09:37:41;;;;;;;;;8.00;7.00;;;;;18.85;46.75;101176.53;5065572;27;45435;-71
2022/06/01 09:40:29;;;;;;;;;6.33;6.33;;;;;18.97;46.97;101179.34;5072932;28;45710;-73
2022/06/01 09:42:55;;;;;;;;;7.33;6.00;;;;;18.99;46.11;101163.78;5074190;27;47559;-73
2022/06/01 09:45:26;;;;;;;;;4.33;4.33;;;;;19.15;46.42;101177.75;5076081;28;45955;-73
2022/06/01 09:47:52;;;;;;;;;9.33;6.00;;;;;19.22;46.29;101167.78;5078506;27;45353;-74
2022/06/01 09:50:23;;;;;;;;;7.00;6.33;;;;;19.42;46.21;101172.94;5076504;28;46144;-72
2022/06/01 09:52:55;;;;;;;;;12.33;8.67;;;;;19.52;46.24;101168.91;5078923;27;45388;-72
2022/06/01 09:55:23;;;;;;;;;5.67;5.67;;;;;19.76;45.48;101171.75;5078906;27;45465;-71
2022/06/01 09:58:08;;;;;;;;;7.00;5.00;;;;;19.90;45.10;101164.31;5078923;27;45220;-72
2022/06/01 10:06:25;;;;;;;;;6.00;5.00;;;;;20.32;44.19;101166.28;5061908;28;45393;-72
2022/06/01 10:08:58;;;;;;;;;6.00;6.00;;;;;20.44;43.49;101159.06;5062186;28;45453;-72
2022/06/01 10:11:30;;;;;;;;;8.00;8.00;;;;;20.51;43.83;101150.88;5060378;28;45520;-72
2022/06/01 10:14:36;;;;;;;;;6.00;6.00;;;;;20.68;43.83;101155.56;5061904;28;45315;-72
2022/06/01 10:17:19;;;;;;;;;7.00;5.00;;;;;20.79;42.22;101154.78;5060368;28;45348;-71
2022/06/01 10:20:16;;;;;;;;;4.67;4.33;;;;;20.85;40.41;101158.44;5062037;28;45325;-72
2022/06/01 10:23:00;;;;;;;;;6.33;5.00;;;;;20.88;42.52;101157.97;5061635;28;45331;-72
2022/06/01 10:25:41;;;;;;;;;5.00;5.00;;;;;21.00;42.48;101154.47;5060428;28;48074;-72
2022/06/01 10:28:25;;;;;;;;;4.67;3.00;;;;;21.17;42.47;101152.72;5061849;28;45494;-72
2022/06/01 10:30:56;;;;;;;;;5.33;5.33;;;;;21.33;41.10;101155.75;5061568;28;45169;-72
2022/06/01 10:33:27;;;;;;;;;6.00;6.00;;;;;21.51;41.71;101156.66;5062771;27;45322;-72
2022/06/01 10:35:59;;;;;;;;;5.33;5.33;;;;;21.55;40.84;101142.44;5075174;28;46422;-72
2022/06/01 10:38:29;;;;;;;;;5.67;5.00;;;;;21.62;40.68;101149.59;5079849;28;45595;-72
2022/06/01 10:41:14;;;;;;;;;5.00;5.00;;;;;21.50;40.99;101150.44;5081553;28;45324;-72
2022/06/01 10:44:02;;;;;;;;;5.67;5.33;;;;;21.38;40.54;101155.88;5081504;27;45264;-73
2022/06/01 10:46:47;;;;;;;;;4.33;4.33;;;;;21.31;40.52;101150.59;5071701;27;46551;-72
2022/06/01 10:49:22;;;;;;;;;5.00;5.00;;;;;21.32;39.32;101154.13;5081824;27;45309;-74
2022/06/01 10:51:58;;;;;;;;;6.00;6.00;;;;;21.44;39.14;101137.88;5075137;27;45596;-73
2022/06/01 10:54:33;;;;;;;;;5.67;5.67;;;;;21.55;39.87;101141.63;5079603;28;45329;-72
2022/06/01 10:56:59;;;;;;;;;3.33;3.33;;;;;21.75;40.66;101143.94;5081390;27;46373;-73
2022/06/01 10:59:25;;;;;;;;;5.33;5.33;;;;;21.93;40.03;101148.34;5080655;27;45521;-72
2022/06/01 11:02:03;;;;;;;;;8.00;5.67;;;;;22.09;39.49;101145.97;5081715;28;45288;-72
2022/06/01 11:04:54;;;;;;;;;5.33;5.33;;;;;22.20;40.19;101146.94;5087582;27;45452;-71
2022/06/01 11:07:38;;;;;;;;;5.00;4.33;;;;;22.43;39.35;101135.19;5101790;27;45434;-72
2022/06/01 11:10:38;;;;;;;;;5.00;5.00;;;;;22.70;39.57;101134.56;5101753;27;45318;-72
2022/06/01 11:13:18;;;;;;;;;7.00;7.00;;;;;22.78;38.82;101136.00;5099936;27;45335;-72
2022/06/01 11:15:44;;;;;;;;;6.33;6.33;;;;;22.68;38.22;101141.28;5101321;27;45382;-72
2022/06/01 11:18:40;;;;;;;;;5.33;5.00;;;;;22.77;37.98;101131.66;5101537;27;45277;-72
2022/06/01 11:21:12;;;;;;;;;5.00;5.00;;;;;22.99;38.32;101139.06;5101631;27;45226;-72
2022/06/01 11:23:50;;;;;;;;;6.33;6.33;;;;;23.19;38.13;101124.13;5101916;27;45333;-72
2022/06/01 11:26:32;;;;;;;;;3.00;3.00;;;;;23.37;37.58;101109.47;5101546;27;45287;-73
2022/06/01 11:29:19;;;;;;;;;4.00;4.00;;;;;23.42;37.90;101125.00;5101397;27;46300;-72
2022/06/01 11:31:49;;;;;;;;;4.33;3.33;;;;;23.29;37.71;101118.84;5081523;27;45343;-73
2022/06/01 11:34:34;;;;;;;;;7.00;5.67;;;;;23.15;37.75;101121.13;5077911;27;45366;-72
2022/06/01 11:37:12;;;;;;;;;5.33;5.33;;;;;22.97;37.33;101124.94;5073290;28;45266;-72
2022/06/01 11:39:51;;;;;;;;;5.00;4.00;;;;;22.90;37.14;101116.94;5076204;28;47328;-72
2022/06/01 11:42:26;;;;;;;;;3.67;2.67;;;;;23.06;36.80;101107.19;5073897;27;45520;-72
2022/06/01 11:45:16;;;;;;;;;5.00;5.00;;;;;23.33;37.64;101109.16;5078090;27;45488;-73
2022/06/01 11:47:46;;;;;;;;;3.00;2.00;;;;;23.42;36.42;101089.75;5072989;27;45435;-72
2022/06/01 11:50:43;;;;;;;;;4.00;4.00;;;;;23.74;35.61;101102.59;5095163;27;47229;-72
2022/06/01 11:53:13;;;;;;;;;4.00;3.00;;;;;24.11;36.07;101100.22;5074810;28;55861;-72
2022/06/01 11:55:38;;;;;;;;;5.00;5.00;;;;;24.40;36.23;101089.94;5080146;27;45426;-74
2022/06/01 11:58:21;;;;;;;;;5.33;4.00;;;;;24.66;34.56;101092.84;5079314;28;46013;-72